Time;durP1;ratioP1;P1;durP2;ratioP2;P2;SDS_P1;SDS_P2;PMS_P1;PMS_P2;Temp;Humidity;BMP_temperature;BMP_pressure;BME280_temperature;BME280_humidity;BME280_pressure;Samples;Min_cycle;Max_cycle;Signal;HPM_P1;HPM_P2
2022/04/05 00:01:58;;;;;;;8.63;2.08;;;6.90;99.90;;;;;;5053423;28;20047;-39
2022/04/05 00:04:24;;;;;;;11.73;1.98;;;6.80;99.90;;;;;;5053030;28;20899;-39
2022/04/05 00:06:49;;;;;;;13.23;2.00;;;6.80;99.90;;;;;;5050994;28;20052;-40
2022/04/05 00:09:15;;;;;;;10.15;1.70;;;6.80;99.90;;;;;;5053633;28;20049;-39
2022/04/05 00:11:41;;;;;;;8.18;1.70;;;6.80;99.90;;;;;;5058549;28;20060;-40
2022/04/05 00:14:09;;;;;;;7.55;1.90;;;6.70;99.90;;;;;;5055043;28;20062;-40
2022/04/05 00:16:40;;;;;;;8.07;2.15;;;6.70;99.90;;;;;;5061924;28;20060;-43
2022/04/05 00:19:06;;;;;;;8.25;1.50;;;6.70;99.90;;;;;;5054547;28;20801;-39
2022/04/05 00:21:32;;;;;;;5.93;1.50;;;6.70;99.90;;;;;;5059827;28;20364;-39
2022/04/05 00:23:58;;;;;;;8.10;1.60;;;6.70;99.90;;;;;;5036523;28;20048;-39
2022/04/05 00:26:23;;;;;;;10.15;1.98;;;6.60;99.90;;;;;;5034061;28;20542;-39
2022/04/05 00:28:49;;;;;;;6.75;1.60;;;6.70;99.90;;;;;;5048962;28;20102;-40
2022/04/05 00:31:15;;;;;;;10.65;1.90;;;6.70;99.90;;;;;;5048618;28;20581;-40
2022/04/05 00:33:41;;;;;;;9.52;1.90;;;6.70;99.90;;;;;;5056830;28;20049;-39
2022/04/05 00:36:06;;;;;;;11.45;2.15;;;6.70;99.90;;;;;;5049647;28;20048;-39
2022/04/05 00:38:32;;;;;;;5.80;1.55;;;6.70;99.90;;;;;;5050669;28;20570;-39
2022/04/05 00:40:58;;;;;;;8.50;1.70;;;6.70;99.90;;;;;;5051103;28;20472;-39
2022/04/05 00:43:24;;;;;;;6.75;1.65;;;6.70;99.90;;;;;;5034748;28;20080;-39
2022/04/05 00:45:50;;;;;;;6.70;1.60;;;6.60;99.90;;;;;;5059306;28;20498;-39
2022/04/05 00:48:28;;;;;;;6.82;1.52;;;6.60;99.90;;;;;;5060604;28;20049;-39
2022/04/05 00:50:54;;;;;;;6.43;1.92;;;6.60;99.90;;;;;;5053228;28;20045;-39
2022/04/05 00:53:24;;;;;;;8.90;1.85;;;6.60;99.90;;;;;;5057273;28;20075;-39
2022/04/05 00:55:53;;;;;;;10.77;1.70;;;6.60;99.90;;;;;;5060094;28;20490;-39
2022/04/05 00:58:20;;;;;;;7.68;2.25;;;6.60;99.90;;;;;;5054817;28;20048;-40
2022/04/05 01:00:48;;;;;;;8.30;1.75;;;6.50;99.90;;;;;;5055241;28;20119;-39
2022/04/05 01:03:14;;;;;;;13.18;1.95;;;6.50;99.90;;;;;;5055745;28;20048;-39
2022/04/05 01:05:40;;;;;;;7.65;1.75;;;6.60;99.90;;;;;;5056019;28;20048;-40
2022/04/05 01:08:07;;;;;;;6.88;2.17;;;6.60;99.90;;;;;;5056713;28;20518;-40
2022/04/05 01:10:33;;;;;;;13.25;1.92;;;6.60;99.90;;;;;;5062699;28;20052;-40
2022/04/05 01:12:59;;;;;;;8.63;1.92;;;6.60;99.90;;;;;;5054982;28;20056;-40
2022/04/05 01:15:25;;;;;;;10.00;2.20;;;6.50;99.90;;;;;;5062571;28;20052;-40
2022/04/05 01:17:52;;;;;;;4.53;1.73;;;6.50;99.90;;;;;;5058405;28;20045;-39
2022/04/05 01:20:18;;;;;;;6.72;1.98;;;6.50;99.90;;;;;;5056643;28;20110;-39
2022/04/05 01:22:54;;;;;;;5.60;1.52;;;6.60;99.90;;;;;;5065763;28;20056;-39
2022/04/05 01:25:20;;;;;;;5.63;1.90;;;6.60;99.90;;;;;;5057556;28;20044;-39
2022/04/05 01:27:46;;;;;;;8.18;2.15;;;6.50;99.90;;;;;;5056913;28;20182;-44
2022/04/05 01:30:13;;;;;;;6.20;1.75;;;6.60;99.90;;;;;;5037599;28;20052;-39
2022/04/05 01:32:39;;;;;;;7.55;2.00;;;6.50;99.90;;;;;;5050212;28;20049;-40
2022/04/05 01:35:06;;;;;;;8.68;2.38;;;6.50;99.90;;;;;;5052828;28;20051;-40
2022/04/05 01:37:32;;;;;;;8.68;1.70;;;6.60;99.90;;;;;;5058863;28;20052;-39
2022/04/05 01:39:59;;;;;;;8.27;1.75;;;6.50;99.90;;;;;;5057178;28;20127;-40
2022/04/05 01:42:25;;;;;;;7.28;2.55;;;6.50;99.90;;;;;;5059059;28;20052;-39
2022/04/05 01:44:51;;;;;;;8.55;1.60;;;6.50;99.90;;;;;;5059639;28;20161;-40
2022/04/05 01:47:18;;;;;;;8.23;1.95;;;6.50;99.90;;;;;;5050824;28;20049;-39
2022/04/05 01:49:45;;;;;;;7.00;1.52;;;6.60;99.90;;;;;;5055925;28;20047;-39
2022/04/05 01:52:12;;;;;;;9.18;1.88;;;6.60;99.90;;;;;;5055073;28;20048;-39
2022/04/05 01:54:39;;;;;;;8.77;2.22;;;6.60;99.90;;;;;;5053366;28;20048;-39
2022/04/05 01:57:05;;;;;;;7.55;1.85;;;6.50;99.90;;;;;;5058250;28;20060;-40
2022/04/05 01:59:33;;;;;;;7.63;1.90;;;6.50;99.90;;;;;;5061543;28;20080;-39
2022/04/05 02:02:05;;;;;;;9.98;1.95;;;6.60;99.90;;;;;;5036446;28;20621;-40
2022/04/05 02:04:31;;;;;;;10.10;2.05;;;6.50;99.90;;;;;;5051973;28;20190;-39
2022/04/05 02:06:57;;;;;;;6.78;2.20;;;6.60;99.90;;;;;;5059976;28;20421;-39
2022/04/05 02:09:23;;;;;;;8.65;2.45;;;6.60;99.90;;;;;;5056970;28;20390;-39
2022/04/05 02:11:49;;;;;;;8.38;2.47;;;6.60;99.90;;;;;;5051099;28;20098;-40
2022/04/05 02:14:16;;;;;;;7.00;2.67;;;6.60;99.90;;;;;;5053113;28;20491;-40
2022/04/05 02:16:42;;;;;;;10.50;3.55;;;6.50;99.90;;;;;;5062273;28;20045;-39
2022/04/05 02:19:13;;;;;;;8.80;2.67;;;6.50;99.90;;;;;;5049563;28;20052;-39
2022/04/05 02:21:39;;;;;;;11.85;2.95;;;6.50;99.90;;;;;;5059863;28;20044;-39
2022/04/05 02:24:04;;;;;;;10.80;2.63;;;6.40;99.90;;;;;;5058443;28;20055;-40
2022/04/05 02:26:33;;;;;;;13.52;3.22;;;6.50;99.90;;;;;;5042835;28;20140;-40
2022/04/05 02:28:59;;;;;;;8.52;2.50;;;6.50;99.90;;;;;;5068018;28;20047;-40
2022/04/05 02:31:25;;;;;;;9.48;2.65;;;6.50;99.90;;;;;;5060278;28;20429;-39
2022/04/05 02:33:51;;;;;;;14.27;3.40;;;6.50;99.90;;;;;;5054682;28;20638;-39
2022/04/05 02:36:17;;;;;;;10.13;2.33;;;6.50;99.90;;;;;;5055954;28;20132;-39
2022/04/05 02:38:42;;;;;;;8.48;2.22;;;6.60;99.90;;;;;;5056381;28;20126;-44
2022/04/05 02:41:13;;;;;;;10.57;2.78;;;6.60;99.90;;;;;;5049831;28;20052;-40
2022/04/05 02:43:40;;;;;;;7.65;2.47;;;6.60;99.90;;;;;;5043408;28;20466;-39
2022/04/05 02:46:15;;;;;;;14.00;2.88;;;6.50;99.90;;;;;;5041310;28;20482;-39
2022/04/05 02:48:54;;;;;;;11.15;2.30;;;6.50;99.90;;;;;;5032162;28;20112;-40
2022/04/05 02:51:21;;;;;;;10.60;2.78;;;6.50;99.90;;;;;;4999466;28;20088;-40
2022/04/05 02:53:47;;;;;;;9.50;2.25;;;6.60;99.90;;;;;;5032999;28;20053;-40
2022/04/05 02:56:13;;;;;;;6.88;2.70;;;6.50;99.90;;;;;;5000155;28;20107;-39
2022/04/05 02:58:40;;;;;;;10.35;2.30;;;6.60;99.90;;;;;;5019954;28;20475;-40
2022/04/05 03:01:08;;;;;;;7.70;2.80;;;6.70;99.90;;;;;;5039357;28;20381;-39
2022/04/05 03:03:39;;;;;;;6.95;2.15;;;6.60;99.90;;;;;;5040509;28;20665;-39
2022/04/05 03:06:10;;;;;;;11.88;2.38;;;6.70;99.90;;;;;;5041668;28;20087;-39
2022/04/05 03:08:37;;;;;;;12.27;2.92;;;6.60;99.90;;;;;;5044042;28;20404;-39
2022/04/05 03:11:04;;;;;;;12.75;2.35;;;6.70;99.90;;;;;;5031276;28;20428;-40
2022/04/05 03:13:29;;;;;;;9.07;2.45;;;6.60;99.90;;;;;;5043175;28;20072;-40
2022/04/05 03:15:58;;;;;;;8.98;2.20;;;6.60;99.90;;;;;;5040116;28;20630;-39
2022/04/05 03:18:29;;;;;;;9.68;2.88;;;6.50;99.90;;;;;;5037039;28;20044;-39
2022/04/05 03:20:55;;;;;;;6.15;1.88;;;6.50;99.90;;;;;;5036702;28;21005;-39
2022/04/05 03:23:30;;;;;;;11.85;2.38;;;6.50;99.90;;;;;;5037454;28;20502;-40
2022/04/05 03:25:55;;;;;;;8.25;2.50;;;6.60;99.90;;;;;;5040549;28;20059;-40
2022/04/05 03:28:25;;;;;;;9.23;2.00;;;6.70;99.90;;;;;;5039910;28;20048;-40
2022/04/05 03:30:51;;;;;;;8.25;2.17;;;6.60;99.90;;;;;;5030621;28;20111;-40
2022/04/05 03:33:16;;;;;;;12.23;1.95;;;6.60;99.90;;;;;;5039870;28;20048;-39
2022/04/05 03:35:42;;;;;;;9.70;2.28;;;6.60;99.90;;;;;;5032964;28;20080;-39
2022/04/05 03:38:08;;;;;;;7.07;1.67;;;6.70;99.90;;;;;;5013984;28;20092;-40
2022/04/05 03:40:34;;;;;;;8.77;2.47;;;6.60;99.90;;;;;;5043068;28;20136;-39
2022/04/05 03:42:59;;;;;;;8.88;2.58;;;6.60;99.90;;;;;;5060473;28;20123;-39
2022/04/05 03:45:26;;;;;;;8.38;2.13;;;6.60;99.90;;;;;;5063300;28;20064;-42
2022/04/05 03:47:51;;;;;;;14.85;2.53;;;6.50;99.90;;;;;;5062017;28;20824;-42
2022/04/05 03:50:26;;;;;;;9.65;2.30;;;6.50;99.90;;;;;;5037596;28;20053;-40
2022/04/05 03:52:52;;;;;;;10.02;2.17;;;6.60;99.90;;;;;;5056869;28;20052;-39
2022/04/05 03:55:18;;;;;;;8.57;1.75;;;6.50;99.90;;;;;;5054717;28;20060;-40
2022/04/05 03:57:43;;;;;;;11.55;2.38;;;6.50;99.90;;;;;;5059370;28;20091;-39
2022/04/05 04:00:09;;;;;;;8.90;2.13;;;6.60;99.90;;;;;;5053638;28;20063;-39
2022/04/05 04:02:36;;;;;;;8.88;2.13;;;6.50;99.90;;;;;;5052796;28;20127;-39
2022/04/05 04:05:02;;;;;;;8.23;2.10;;;6.60;99.90;;;;;;5056953;28;20392;-40
2022/04/05 04:07:28;;;;;;;6.55;1.45;;;6.60;99.90;;;;;;5032564;28;20067;-39
2022/04/05 04:09:54;;;;;;;12.00;1.90;;;6.50;99.90;;;;;;5051557;28;20504;-39
2022/04/05 04:12:19;;;;;;;6.68;1.77;;;6.50;99.90;;;;;;5059643;28;20044;-40
2022/04/05 04:14:45;;;;;;;8.68;1.85;;;6.40;99.90;;;;;;5053396;28;20059;-41
2022/04/05 04:17:10;;;;;;;11.48;1.90;;;6.40;99.90;;;;;;5055356;28;20048;-39
2022/04/05 04:19:39;;;;;;;9.50;1.98;;;6.50;99.90;;;;;;5048059;28;20052;-39
2022/04/05 04:22:05;;;;;;;6.43;1.63;;;6.40;99.90;;;;;;5045736;28;20045;-39
2022/04/05 04:24:30;;;;;;;8.82;1.80;;;6.50;99.90;;;;;;5048584;28;20052;-41
2022/04/05 04:26:56;;;;;;;7.40;2.40;;;6.40;99.90;;;;;;5038869;28;20065;-39
2022/04/05 04:29:22;;;;;;;9.38;1.60;;;6.40;99.90;;;;;;5051981;28;20348;-40
2022/04/05 04:31:48;;;;;;;7.43;1.67;;;6.50;99.90;;;;;;5044817;28;20102;-39
2022/04/05 04:34:13;;;;;;;11.15;2.42;;;6.50;99.90;;;;;;5046042;28;20148;-39
2022/04/05 04:36:39;;;;;;;7.45;1.80;;;6.50;99.90;;;;;;5040094;28;20053;-40
2022/04/05 04:39:05;;;;;;;10.45;2.40;;;6.40;99.90;;;;;;5057969;28;20048;-39
2022/04/05 04:41:31;;;;;;;5.35;1.58;;;6.40;99.90;;;;;;5042337;28;20052;-40
2022/04/05 04:43:57;;;;;;;6.47;1.67;;;6.40;99.90;;;;;;5045526;28;20095;-39
2022/04/05 04:46:22;;;;;;;7.80;1.90;;;6.40;99.90;;;;;;5047393;28;20056;-40
2022/04/05 04:48:48;;;;;;;6.63;1.80;;;6.40;99.90;;;;;;5022161;28;20083;-39
2022/04/05 04:51:14;;;;;;;8.15;1.80;;;6.40;99.90;;;;;;5039561;28;20590;-40
2022/04/05 04:53:40;;;;;;;9.85;1.90;;;6.50;99.90;;;;;;5041394;28;20060;-39
2022/04/05 04:56:06;;;;;;;6.00;1.70;;;6.40;99.90;;;;;;5049549;28;20045;-40
2022/04/05 04:58:32;;;;;;;7.57;1.70;;;6.30;99.90;;;;;;5047957;28;20411;-40
2022/04/05 05:00:57;;;;;;;6.88;1.63;;;6.40;99.90;;;;;;5046346;28;20056;-41
2022/04/05 05:03:23;;;;;;;9.60;2.05;;;6.30;99.90;;;;;;5047853;28;20087;-39
2022/04/05 05:05:49;;;;;;;8.25;1.80;;;6.30;99.90;;;;;;5045667;28;20144;-39
2022/04/05 05:08:14;;;;;;;6.63;1.40;;;6.30;99.90;;;;;;5041868;28;20052;-39
2022/04/05 05:10:40;;;;;;;5.95;1.50;;;6.30;99.90;;;;;;5046370;28;20400;-39
2022/04/05 05:13:06;;;;;;;5.40;1.63;;;6.30;99.90;;;;;;5038677;28;20063;-39
2022/04/05 05:15:32;;;;;;;6.68;1.35;;;6.30;99.90;;;;;;5046560;28;20495;-39
2022/04/05 05:17:57;;;;;;;3.95;1.33;;;6.30;99.90;;;;;;5020970;28;20056;-39
2022/04/05 05:20:23;;;;;;;4.55;1.45;;;6.30;99.90;;;;;;5046090;28;20044;-39
2022/04/05 05:22:49;;;;;;;8.93;1.60;;;6.30;99.90;;;;;;5039483;28;20048;-40
2022/04/05 05:25:15;;;;;;;5.05;1.60;;;6.30;99.90;;;;;;5047076;28;20048;-39
2022/04/05 05:27:43;;;;;;;4.28;1.40;;;6.30;99.90;;;;;;5046590;28;20060;-39
2022/04/05 05:30:10;;;;;;;9.95;1.80;;;6.30;99.90;;;;;;5017169;28;20064;-40
2022/04/05 05:32:47;;;;;;;6.60;1.40;;;6.30;99.90;;;;;;5046917;28;20613;-39
2022/04/05 05:35:17;;;;;;;7.97;1.45;;;6.30;99.90;;;;;;5018168;28;20115;-39
2022/04/05 05:37:43;;;;;;;7.00;1.55;;;6.40;99.90;;;;;;5052300;28;20124;-39
2022/04/05 05:40:10;;;;;;;6.40;1.67;;;6.40;99.90;;;;;;5047950;28;20111;-40
2022/04/05 05:43:06;;;;;;;5.95;2.00;;;6.40;99.90;;;;;;5058080;28;20139;-39
2022/04/05 05:45:35;;;;;;;6.78;2.60;;;6.30;99.90;;;;;;4971904;28;20733;-39
2022/04/05 05:48:01;;;;;;;6.60;2.58;;;6.40;99.90;;;;;;4993069;28;20576;-39
2022/04/05 05:50:27;;;;;;;9.13;1.95;;;6.40;99.90;;;;;;4986422;28;20093;-39
2022/04/05 05:52:53;;;;;;;8.35;1.95;;;6.40;99.90;;;;;;4993463;28;20117;-40
2022/04/05 05:55:21;;;;;;;6.18;1.67;;;6.40;99.90;;;;;;4980579;28;20117;-39
2022/04/05 05:57:47;;;;;;;8.25;1.48;;;6.50;99.90;;;;;;4980469;28;20050;-39
2022/04/05 06:00:17;;;;;;;5.88;1.65;;;6.50;99.90;;;;;;4986143;28;20058;-39
2022/04/05 06:02:44;;;;;;;7.38;2.00;;;6.50;99.90;;;;;;4989085;28;20072;-42
2022/04/05 06:05:11;;;;;;;6.55;2.10;;;6.50;99.90;;;;;;4984228;28;20178;-39
2022/04/05 06:07:37;;;;;;;7.38;1.77;;;6.50;99.90;;;;;;4995312;28;20133;-40
2022/04/05 06:10:07;;;;;;;8.90;2.35;;;6.50;99.90;;;;;;4987901;28;20792;-40
2022/04/05 06:12:37;;;;;;;5.00;1.60;;;6.60;99.90;;;;;;4987360;28;20058;-39
2022/04/05 06:15:03;;;;;;;5.72;2.00;;;6.60;99.90;;;;;;4981941;28;20502;-39
2022/04/05 06:17:28;;;;;;;6.03;2.05;;;6.70;99.90;;;;;;4984121;28;20050;-42
2022/04/05 06:19:55;;;;;;;7.80;1.88;;;6.70;99.90;;;;;;4979503;28;20480;-40
2022/04/05 06:22:21;;;;;;;5.97;1.90;;;6.70;99.90;;;;;;5032068;28;20061;-39
2022/04/05 06:24:52;;;;;;;6.75;1.67;;;6.90;99.90;;;;;;5054321;28;20047;-39
2022/04/05 06:27:19;;;;;;;7.00;2.00;;;6.90;99.90;;;;;;5051652;28;20076;-39
2022/04/05 06:29:44;;;;;;;9.35;1.80;;;7.00;99.90;;;;;;5052739;28;20150;-40
2022/04/05 06:32:10;;;;;;;6.30;2.08;;;7.10;99.90;;;;;;5053643;28;20505;-40
2022/04/05 06:34:36;;;;;;;6.95;2.20;;;7.20;99.90;;;;;;5054707;28;20060;-40
2022/04/05 06:37:01;;;;;;;6.72;1.60;;;7.30;99.90;;;;;;5051584;28;20063;-40
2022/04/05 06:39:27;;;;;;;6.05;1.60;;;7.30;99.90;;;;;;5054073;28;20071;-40
2022/04/05 06:41:53;;;;;;;7.95;1.80;;;7.40;99.90;;;;;;5042081;28;20056;-39
2022/04/05 06:44:28;;;;;;;4.95;1.60;;;7.40;99.90;;;;;;5034021;28;20060;-40
2022/04/05 06:46:54;;;;;;;7.03;1.65;;;7.40;99.90;;;;;;5035839;28;20048;-41
2022/04/05 06:49:19;;;;;;;5.13;1.67;;;7.40;99.90;;;;;;5035606;28;20055;-40
2022/04/05 06:51:45;;;;;;;10.77;2.13;;;7.40;99.90;;;;;;5015470;28;20198;-40
2022/04/05 06:54:11;;;;;;;8.85;2.22;;;7.40;99.90;;;;;;5035352;28;20110;-40
2022/04/05 06:56:37;;;;;;;6.57;1.60;;;7.40;99.90;;;;;;5035882;28;20527;-39
2022/04/05 06:59:11;;;;;;;4.93;1.77;;;7.40;99.90;;;;;;5039805;28;20044;-40
2022/04/05 07:01:37;;;;;;;9.07;2.35;;;7.50;99.90;;;;;;5037443;28;20041;-40
2022/04/05 07:04:04;;;;;;;9.15;1.80;;;7.50;99.90;;;;;;5038938;28;20377;-40
2022/04/05 07:06:29;;;;;;;5.90;1.90;;;7.50;99.90;;;;;;5037966;28;20037;-40
2022/04/05 07:08:55;;;;;;;6.97;2.15;;;7.50;99.90;;;;;;5037979;28;20495;-40
2022/04/05 07:11:21;;;;;;;6.93;2.50;;;7.60;99.90;;;;;;5037476;28;20101;-40
2022/04/05 07:13:46;;;;;;;5.85;2.13;;;7.60;99.90;;;;;;5035799;28;20037;-40
2022/04/05 07:16:12;;;;;;;7.28;2.20;;;7.60;99.90;;;;;;5035629;28;20150;-41
2022/04/05 07:18:38;;;;;;;7.72;2.15;;;7.60;99.90;;;;;;5038415;28;20442;-40
2022/04/05 07:21:04;;;;;;;8.40;2.00;;;7.60;99.90;;;;;;5033827;28;20052;-40
2022/04/05 07:23:29;;;;;;;7.07;2.00;;;7.60;99.90;;;;;;5039755;28;20045;-40
2022/04/05 07:25:58;;;;;;;8.40;1.83;;;7.60;99.90;;;;;;5039694;28;20438;-40
2022/04/05 07:28:23;;;;;;;6.80;2.55;;;7.60;99.90;;;;;;5033563;28;20049;-39
2022/04/05 07:30:49;;;;;;;6.53;2.38;;;7.70;99.90;;;;;;5038877;28;20044;-39
2022/04/05 07:33:15;;;;;;;7.10;2.90;;;7.80;99.90;;;;;;5034883;28;20645;-40
2022/04/05 07:35:43;;;;;;;7.10;2.40;;;7.80;99.90;;;;;;5031180;28;20045;-40
2022/04/05 07:38:09;;;;;;;7.00;2.10;;;7.80;99.90;;;;;;5033363;28;20041;-40
2022/04/05 07:40:52;;;;;;;5.20;1.70;;;7.90;99.90;;;;;;5033830;28;20519;-40
2022/04/05 07:43:25;;;;;;;4.53;1.88;;;7.90;99.90;;;;;;5035505;28;20423;-40
2022/04/05 07:45:52;;;;;;;5.50;2.00;;;8.10;99.90;;;;;;5038471;28;20161;-40
2022/04/05 07:48:23;;;;;;;4.57;1.67;;;8.20;99.90;;;;;;5039687;28;20045;-40
2022/04/05 07:50:49;;;;;;;4.80;1.65;;;8.40;99.90;;;;;;5040041;28;20103;-40
2022/04/05 07:53:16;;;;;;;3.95;1.90;;;8.40;99.90;;;;;;5040296;28;20048;-40
2022/04/05 07:55:42;;;;;;;4.50;1.50;;;8.50;99.90;;;;;;5040409;28;20140;-40
2022/04/05 07:58:08;;;;;;;5.93;2.10;;;8.50;99.90;;;;;;5040617;28;20125;-41
2022/04/05 08:00:34;;;;;;;6.68;2.13;;;8.40;99.90;;;;;;5038996;28;20462;-40
2022/04/05 08:03:00;;;;;;;6.00;2.85;;;8.40;99.90;;;;;;5022404;28;20063;-40
2022/04/05 08:05:27;;;;;;;4.13;1.73;;;8.50;99.90;;;;;;5040222;28;20091;-39
2022/04/05 08:07:54;;;;;;;5.47;1.92;;;8.50;99.90;;;;;;5040142;28;20128;-41
2022/04/05 08:10:20;;;;;;;3.35;1.60;;;8.50;99.90;;;;;;5040698;28;20112;-40
2022/04/05 08:12:48;;;;;;;4.13;1.40;;;8.50;99.90;;;;;;5040660;28;20052;-40
2022/04/05 08:15:17;;;;;;;4.47;2.00;;;8.40;99.90;;;;;;5039821;28;20053;-39
2022/04/05 08:17:43;;;;;;;6.22;2.03;;;8.50;99.90;;;;;;5039126;28;20423;-40
2022/04/05 08:20:10;;;;;;;6.00;2.25;;;8.50;99.90;;;;;;5038975;28;20493;-40
2022/04/05 08:22:36;;;;;;;6.15;2.67;;;8.50;99.90;;;;;;5023156;28;20136;-40
2022/04/05 08:25:02;;;;;;;4.55;3.03;;;8.50;99.90;;;;;;5040445;28;20103;-40
2022/04/05 08:27:28;;;;;;;4.13;2.50;;;8.60;99.90;;;;;;5040101;28;20052;-40
2022/04/05 08:29:54;;;;;;;5.93;1.80;;;8.60;99.90;;;;;;5042479;28;20045;-40
2022/04/05 08:32:20;;;;;;;5.20;2.00;;;8.70;99.90;;;;;;5041852;28;20072;-40
2022/04/05 08:34:46;;;;;;;7.47;2.38;;;8.70;99.90;;;;;;5037890;28;20719;-40
2022/04/05 08:37:13;;;;;;;4.03;1.98;;;8.60;99.90;;;;;;5039995;28;20126;-40
2022/04/05 08:39:40;;;;;;;3.20;1.50;;;8.70;99.90;;;;;;5039413;28;20523;-40
2022/04/05 08:42:07;;;;;;;6.68;1.90;;;8.80;99.90;;;;;;5038621;28;20160;-40
2022/04/05 08:44:33;;;;;;;3.10;1.75;;;8.90;99.90;;;;;;5036743;28;20106;-40
2022/04/05 08:47:03;;;;;;;5.65;1.75;;;8.90;99.90;;;;;;5031991;28;20467;-40
2022/04/05 08:49:30;;;;;;;3.20;1.42;;;9.00;99.90;;;;;;5033743;28;20081;-40
2022/04/05 08:51:56;;;;;;;4.47;1.92;;;9.10;99.90;;;;;;5037786;28;20135;-40
2022/04/05 08:54:23;;;;;;;2.17;1.00;;;9.10;99.90;;;;;;5036443;28;20124;-40
2022/04/05 08:56:50;;;;;;;3.90;1.80;;;9.10;99.90;;;;;;5015406;28;20120;-40
2022/04/05 08:59:16;;;;;;;3.03;1.60;;;9.30;99.90;;;;;;5039910;28;20088;-40
2022/04/05 09:01:43;;;;;;;2.40;1.67;;;9.40;99.90;;;;;;5040919;28;20064;-40
2022/04/05 09:04:10;;;;;;;2.38;1.60;;;9.50;99.90;;;;;;5027754;28;20053;-40
2022/04/05 09:06:36;;;;;;;4.05;2.40;;;9.50;99.90;;;;;;5040150;28;20688;-40
2022/04/05 09:09:16;;;;;;;3.60;2.33;;;9.60;99.90;;;;;;5040048;28;20455;-40
2022/04/05 09:11:47;;;;;;;5.95;2.65;;;9.60;99.90;;;;;;5035676;28;20081;-41
2022/04/05 09:14:24;;;;;;;4.22;2.33;;;9.60;99.90;;;;;;5038861;28;20092;-40
2022/04/05 09:17:07;;;;;;;3.65;2.50;;;9.70;99.90;;;;;;5035441;28;20450;-40
2022/04/05 09:19:43;;;;;;;4.68;2.63;;;9.60;99.90;;;;;;5037423;28;20139;-41
2022/04/05 09:22:09;;;;;;;4.28;2.30;;;9.60;99.90;;;;;;5044746;28;20076;-40
2022/04/05 09:24:45;;;;;;;3.95;2.33;;;9.60;99.90;;;;;;5044261;28;20045;-40
2022/04/05 09:27:11;;;;;;;3.85;1.83;;;9.60;99.90;;;;;;5037368;28;20078;-41
2022/04/05 09:29:41;;;;;;;2.17;1.67;;;9.60;99.90;;;;;;5041003;28;20064;-40
2022/04/05 09:32:08;;;;;;;1.52;1.15;;;9.70;99.90;;;;;;5042188;28;20048;-40
2022/04/05 09:34:47;;;;;;;2.08;1.50;;;9.80;99.90;;;;;;5036290;28;20517;-40
2022/04/05 09:37:13;;;;;;;2.65;1.60;;;9.70;99.90;;;;;;5038976;28;20102;-40
2022/04/05 09:39:39;;;;;;;2.42;1.48;;;9.70;99.90;;;;;;5045137;28;20048;-40
2022/04/05 09:42:08;;;;;;;2.95;1.98;;;9.70;99.90;;;;;;5053027;28;20564;-41
2022/04/05 09:44:38;;;;;;;2.38;1.65;;;9.60;99.90;;;;;;5061773;28;20060;-40
2022/04/05 09:47:17;;;;;;;3.63;1.55;;;9.60;99.90;;;;;;5057268;28;20044;-41
2022/04/05 09:49:45;;;;;;;2.90;1.70;;;9.50;99.90;;;;;;5054530;28;20142;-40
2022/04/05 09:52:34;;;;;;;3.08;1.85;;;9.40;99.90;;;;;;5054413;28;20666;-40
2022/04/05 09:55:16;;;;;;;2.80;2.13;;;9.40;99.90;;;;;;5043973;28;20057;-40
2022/04/05 09:57:43;;;;;;;3.08;2.38;;;9.40;99.90;;;;;;5059271;28;20638;-41
2022/04/05 10:00:17;;;;;;;3.53;2.25;;;9.40;99.90;;;;;;5022642;28;20495;-40
2022/04/05 10:03:09;;;;;;;4.35;3.05;;;9.60;99.90;;;;;;5058698;28;20499;-40
2022/04/05 10:05:36;;;;;;;3.95;2.75;;;9.70;99.90;;;;;;5054819;28;20044;-40
2022/04/05 10:08:03;;;;;;;4.40;3.55;;;9.70;99.90;;;;;;5058171;28;20045;-41
2022/04/05 10:10:29;;;;;;;8.38;3.90;;;9.70;99.90;;;;;;5063743;28;20437;-40
2022/04/05 10:12:55;;;;;;;5.35;3.47;;;9.80;99.90;;;;;;5062947;28;20074;-40
2022/04/05 10:15:22;;;;;;;5.47;4.20;;;9.90;99.90;;;;;;5060098;28;20053;-40
2022/04/05 10:17:52;;;;;;;7.10;5.18;;;10.00;99.90;;;;;;5056310;28;20491;-40
2022/04/05 10:20:18;;;;;;;6.43;4.93;;;10.30;99.90;;;;;;5041580;28;20507;-40
2022/04/05 10:22:58;;;;;;;6.63;4.75;;;10.40;99.90;;;;;;5043707;28;20124;-40
2022/04/05 10:25:25;;;;;;;5.55;4.57;;;10.50;99.90;;;;;;5052382;28;20164;-40
2022/04/05 10:27:57;;;;;;;4.38;3.58;;;10.70;99.90;;;;;;5042287;28;20159;-41
2022/04/05 10:30:41;;;;;;;5.68;4.07;;;10.70;99.90;;;;;;5057544;28;20052;-41
2022/04/05 10:33:28;;;;;;;6.60;4.03;;;10.80;99.90;;;;;;5048401;28;20109;-40
2022/04/05 10:36:00;;;;;;;6.22;4.03;;;10.90;99.90;;;;;;5037492;28;20518;-41
2022/04/05 10:38:27;;;;;;;3.95;3.25;;;11.00;99.90;;;;;;5039435;28;20502;-41
2022/04/05 10:41:17;;;;;;;3.85;3.45;;;11.30;99.90;;;;;;5056477;28;20509;-41
2022/04/05 10:43:44;;;;;;;4.07;3.13;;;11.40;99.90;;;;;;5050275;28;20087;-41
2022/04/05 10:46:11;;;;;;;3.42;3.13;;;11.40;99.90;;;;;;5035201;28;20044;-42
2022/04/05 10:48:52;;;;;;;3.53;3.22;;;11.50;99.90;;;;;;5053355;28;20124;-44
2022/04/05 10:51:30;;;;;;;3.33;3.03;;;11.70;99.90;;;;;;5039180;28;20059;-41
2022/04/05 10:54:19;;;;;;;3.47;3.17;;;11.70;99.90;;;;;;5040406;28;20089;-42
2022/04/05 10:57:26;;;;;;;3.67;3.13;;;11.80;99.90;;;;;;5054679;28;20124;-42
2022/04/05 11:00:08;;;;;;;3.53;3.20;;;11.70;99.90;;;;;;5056834;28;20136;-42
2022/04/05 11:02:41;;;;;;;3.90;3.50;;;11.60;99.90;;;;;;5051420;28;20049;-48
2022/04/05 11:05:18;;;;;;;4.10;3.70;;;11.50;99.90;;;;;;5052302;28;20057;-41
2022/04/05 11:07:59;;;;;;;4.18;3.78;;;11.50;99.90;;;;;;5054721;28;20044;-41
2022/04/05 11:10:29;;;;;;;4.53;4.13;;;11.50;99.90;;;;;;5044410;28;20121;-41
2022/04/05 11:13:02;;;;;;;4.32;3.92;;;11.60;99.90;;;;;;5049227;28;20098;-42
2022/04/05 11:15:57;;;;;;;4.75;4.25;;;11.60;99.90;;;;;;5059195;28;20386;-42
2022/04/05 11:18:26;;;;;;;5.55;4.40;;;11.70;99.90;;;;;;5059318;28;20041;-41
2022/04/05 11:20:57;;;;;;;5.07;4.55;;;11.60;99.90;;;;;;5050163;28;20044;-42
2022/04/05 11:23:46;;;;;;;5.88;5.38;;;11.60;99.90;;;;;;5060077;28;20422;-42
2022/04/05 11:26:35;;;;;;;7.32;5.47;;;11.50;99.90;;;;;;5053331;28;20048;-47
2022/04/05 11:29:18;;;;;;;8.65;6.68;;;11.60;99.90;;;;;;5048666;28;20499;-41
2022/04/05 11:31:44;;;;;;;7.25;6.55;;;11.60;99.90;;;;;;5059691;28;20459;-42
2022/04/05 11:34:32;;;;;;;9.52;6.78;;;11.70;99.90;;;;;;5037191;28;20491;-43
2022/04/05 11:36:58;;;;;;;11.00;7.90;;;11.60;99.90;;;;;;5049213;28;20085;-41
2022/04/05 11:39:24;;;;;;;11.63;7.47;;;11.70;99.90;;;;;;5052839;28;20159;-42
2022/04/05 11:42:00;;;;;;;9.32;7.25;;;11.70;99.90;;;;;;5043732;28;20089;-42
2022/04/05 11:44:26;;;;;;;9.60;7.20;;;11.70;99.90;;;;;;5040375;28;20615;-43
2022/04/05 11:46:54;;;;;;;8.43;7.57;;;11.80;99.90;;;;;;5024145;28;20617;-41
2022/04/05 11:49:20;;;;;;;12.70;7.20;;;11.90;99.90;;;;;;5023498;28;20459;-42
2022/04/05 11:51:48;;;;;;;11.57;7.20;;;12.00;99.90;;;;;;5041438;28;20041;-42
2022/04/05 11:54:23;;;;;;;8.98;6.25;;;11.90;99.90;;;;;;5039291;28;20052;-42
2022/04/05 11:56:50;;;;;;;12.88;6.68;;;11.80;99.90;;;;;;5039996;28;20049;-42
2022/04/05 11:59:17;;;;;;;10.23;6.60;;;11.70;99.90;;;;;;5040582;28;20434;-41
2022/04/05 12:01:49;;;;;;;10.93;7.05;;;11.70;99.90;;;;;;5040434;28;20088;-42
2022/04/05 12:04:22;;;;;;;10.05;5.93;;;11.60;99.90;;;;;;5039455;28;20505;-42
2022/04/05 12:06:58;;;;;;;11.73;6.43;;;11.50;99.90;;;;;;5040505;28;20049;-43
2022/04/05 12:09:26;;;;;;;15.38;6.70;;;11.40;99.90;;;;;;5040573;28;20123;-42
2022/04/05 12:11:53;;;;;;;7.28;5.22;;;11.30;99.90;;;;;;5019502;28;20240;-42
2022/04/05 12:14:29;;;;;;;9.85;4.50;;;11.40;99.90;;;;;;5042906;28;20044;-41
2022/04/05 12:16:58;;;;;;;12.27;4.90;;;11.30;99.90;;;;;;5040909;28;20400;-43
2022/04/05 12:19:39;;;;;;;9.07;4.50;;;11.20;99.90;;;;;;5042422;28;20416;-44
2022/04/05 12:22:07;;;;;;;10.60;4.68;;;11.10;99.90;;;;;;5034902;28;20052;-42
2022/04/05 12:24:35;;;;;;;10.73;5.57;;;11.00;99.90;;;;;;5039714;28;20049;-41
2022/04/05 12:27:03;;;;;;;13.38;6.60;;;11.00;99.90;;;;;;5019934;28;20495;-41
2022/04/05 12:29:30;;;;;;;18.90;8.25;;;10.90;99.90;;;;;;5039086;28;20503;-42
2022/04/05 12:32:12;;;;;;;14.35;6.90;;;10.90;99.90;;;;;;5040713;28;20480;-42
2022/04/05 12:34:39;;;;;;;12.60;6.75;;;10.80;99.90;;;;;;5038662;28;20404;-42
2022/04/05 12:37:05;;;;;;;18.10;7.43;;;10.70;99.90;;;;;;5039440;28;20049;-42
2022/04/05 12:39:40;;;;;;;14.75;8.10;;;10.70;99.90;;;;;;5040488;28;20056;-42
2022/04/05 12:42:07;;;;;;;19.48;8.07;;;10.60;99.90;;;;;;5033395;28;20540;-42
2022/04/05 12:44:35;;;;;;;16.20;8.48;;;10.60;99.90;;;;;;5021240;28;20439;-43
2022/04/05 12:47:14;;;;;;;18.35;8.65;;;10.60;99.90;;;;;;5031496;28;20049;-42
2022/04/05 12:49:42;;;;;;;25.80;10.20;;;10.60;99.90;;;;;;5015421;28;20063;-42
2022/04/05 12:52:23;;;;;;;29.13;10.20;;;10.60;99.90;;;;;;5033983;28;20052;-41
2022/04/05 12:54:53;;;;;;;22.30;9.90;;;10.60;99.90;;;;;;5039029;28;20040;-41
2022/04/05 12:57:32;;;;;;;25.52;9.65;;;10.50;99.90;;;;;;5039434;28;20076;-41
2022/04/05 13:00:18;;;;;;;28.92;9.43;;;10.50;99.90;;;;;;5029787;28;20049;-44
2022/04/05 13:02:45;;;;;;;20.13;8.90;;;10.50;99.90;;;;;;5023450;28;20057;-43